AirNav   Air Wisconsin pilot careers
 
 959 users online  

T78 Liberty Municipal Airport
Liberty, Texas, USA

GOING TO LIBERTY?


FAA INFORMATION EFFECTIVE 29 MARCH 2018

Location

FAA Identifier: T78
Lat/Long: 30-04-40.1000N / 094-41-54.8000W
30-04.668333N / 094-41.913333W
30.0778056 / -94.6985556
(estimated)
Elevation: 69.5 ft. / 21.2 m (surveyed)
Variation: 05E (1995)
From city: 6 miles NE of LIBERTY, TX
Time zone: UTC -5 (UTC -6 during Standard Time)
Zip code: 77575

Airport Operations

Airport use: Open to the public
Activation date: 08/1959
Control tower: no
ARTCC: HOUSTON CENTER
FSS: MONTGOMERY COUNTY FLIGHT SERVICE STATION
FOR FP FILING CALL CXO FSS 1-800-992-7433.
NOTAMs facility: CXO (NOTAM-D service available)
Attendance: 0800-1800
Wind indicator: lighted
Segmented circle: yes
Lights: ACTVT MIRL RY 16/34 - CTAF.
Beacon: white-green (lighted land airport)
Operates sunset to sunrise.

Airport Communications

CTAF: 122.9
HOUSTON APPROACH: 119.7
HOUSTON DEPARTURE: 119.7
BORRN DP: 119.7
DREMR DP: 119.7
INDIE DP: 119.7
KARRR DP: 119.7
LURIC DP: 119.7
MMALT DP: 119.7
STRYA DP: 119.7
STYCK DP: 119.7
WATFO DP: 119.7
WYLSN DP: 119.7

Nearby radio navigation aids

VOR radial/distance  VOR name  Freq  Var
DASr197/7.3DAISETTA VORTAC116.9005E
MHFr358/32.0TRINITY VOR/DME113.6007E
IAHr073/34.4HUMBLE VORTAC116.6005E
BPTr276/36.3BEAUMONT VOR/DME114.5007E
HUBr045/39.3HOBBY VOR/DME117.1005E

 
NDB name  Hdg/Dist  Freq  Var  ID
GOODHUE264/25.336807EGDE --. -.. .
NIXIN074/27.332605EBVP -... ...- .--.
HARDIN COUNTY232/27.552404EHRD .... .-. -..

Airport Services

Fuel available: 100LL JET-A
24 HR SELF-SERVICE FUEL.
Parking: tiedowns
Airframe service: MAJOR
Powerplant service: MAJOR
Bottled oxygen: NONE
Bulk oxygen: NONE

Runway Information

Runway 16/34

Dimensions: 3801 x 75 ft. / 1159 x 23 m
Surface: asphalt, in fair condition
Weight bearing capacity: 
Single wheel: 10.0
Runway edge lights: medium intensity
RUNWAY 16  RUNWAY 34
Latitude: 30-04.971517N30-04.363658N
Longitude: 094-42.001210W094-41.824053W
Elevation: 68.9 ft.68.6 ft.
Traffic pattern: leftleft
Runway heading: 161 magnetic, 166 true341 magnetic, 346 true
Markings: nonprecision, in fair conditionnonprecision, in fair condition
Visual slope indicator: 2-light PAPI on left (3.00 degrees glide path)
Touchdown point: yes, no lightsyes, no lights
Obstructions: 51 ft. trees, 200 ft. from runway, 215 ft. right of centerline
+57 FT TREES 215 FT RT OF RY CENTERLINE FM THLD TO 200 FT.
67 ft. trees, 1248 ft. from runway, 15:1 slope to clear

Airport Ownership and Management from official FAA records

Ownership: Publicly-owned
Owner: CITY OF LIBERTY
1829 SAM HOUSTON
LIBERTY, TX 77575
Phone 936-587-4150
Manager: PHIL ROBERTSON
1829 SAM HOUSTON
LIBERTY, TX 77575
Phone (281) 660-2337

Airport Operational Statistics

Aircraft based on the field: 26
Single engine airplanes: 23
Multi engine airplanes: 1
Ultralights: 2
    
Aircraft operations: avg 120/week *
58% transient general aviation
41% local general aviation
<1% military
* for 12-month period ending 14 November 2016

Additional Remarks

FOR CD CTC HOUSTON APCH AT 281-443-5844 TO CNL IFR CALL 281-443-5888.

Instrument Procedures

NOTE: All procedures below are presented as PDF files. If you need a reader for these files, you should download the free Adobe Reader.

NOT FOR NAVIGATION. Please procure official charts for flight.
FAA instrument procedures published for use from 29 March 2018 at 0901Z to 26 April 2018 at 0900Z.

 
STARs - Standard Terminal Arrivals
HUDZY THREE   2 pages: [1] [2] (325KB)
OHIIO FOUR   download (296KB)
RIICE EIGHT   2 pages: [1] [2] (548KB)
WHAEL THREE   download (158KB)
 
IAPs - Instrument Approach Procedures
RNAV (GPS) RWY 16   download (140KB)
VOR-A   download (125KB)
 
Departure Procedures
BLTWY FOUR (RNAV)   2 pages: [1] [2] (154KB)
BORRN THREE (RNAV)   2 pages: [1] [2] (248KB)
HOODO FIVE (RNAV)   2 pages: [1] [2] (203KB)
INDIE FIVE (RNAV)   2 pages: [1] [2] (179KB)
KARRR FOUR (RNAV)   2 pages: [1] [2] (195KB)
LURIC FIVE (RNAV)   2 pages: [1] [2] (201KB)
MMALT THREE (RNAV)   2 pages: [1] [2] (212KB)
STRYA FIVE (RNAV)   2 pages: [1] [2] (187KB)
STYCK FIVE (RNAV)   download (146KB)
WATFO FOUR (RNAV)   download (138KB)
WYLSN FIVE (RNAV)   download (133KB)
NOTE: Special Take-Off Minimums/Departure Procedures apply   download

Other nearby airports with instrument procedures:

T00 - Chambers County Airport (19 nm S)
54T - RWJ Airpark (20 nm S)
KHPY - Baytown Airport (22 nm SW)
6R3 - Cleveland Municipal Airport (23 nm NW)
KBMT - Beaumont Municipal Airport (25 nm E)
 
Loc | Ops | Rwys | IFR | FBO | Links
Com | Nav | Svcs | Stats | Notes

AirNav Hotels Sweepstakes
 
Area around T78 (Liberty Municipal Airport)
 
Road maps at: MapQuest Bing Google
 
Aerial photo
WARNING: Photo may not be current or correct
Aerial photo of T78 (Liberty Municipal Airport)
Photo by David Lawrence flying a 78 Bellanca/17-30A
Photo taken 08-Nov-2014
looking north.

Do you have a better or more recent aerial photo of Liberty Municipal Airport that you would like to share? If so, please send us your photo.

 
Sectional chart

 
Airport diagram
CAUTION: Diagram may not be current
Diagram of T78 (Liberty Municipal Airport)
 
Airport distance calculator
Flying to Liberty Municipal Airport? Find the distance to fly.

From to T78

Sunrise and sunset
Times for 21-Apr-2018
 Local
(UTC-5)
 Zulu
(UTC)
Morning civil twilight06:2211:22
Sunrise06:4611:46
Sunset19:4900:49
Evening civil twilight20:1401:14

Current date and time
Zulu (UTC)  21-Apr-2018 14:01:27
Local (UTC-5)  21-Apr-2018 09:01:27
 
METAR
K6R3 
23nm NW 
211355Z AUTO 11005KT 10SM OVC020 16/12 A3008 RMK AO2 T01620117
KBMT 
25nm E 
211355Z AUTO 10009KT 10SM BKN029 OVC037 19/13 A3008 RMK AO2 T01850126
KIAH 
35nm W 
211353Z 09010KT 10SM -RA OVC015 18/15 A3005 RMK AO2 RAB24E34B50 SLP174 P0000 T01780150
KBPT 
35nm E 
211353Z 08012KT 10SM BKN029 OVC050 18/13 A3007 RMK AO2 SLP183 T01780128 $
KEFD 
38nm SW 
211350Z 09010KT 10SM OVC012 20/17 A3005
KHOU 
40nm SW 
211353Z 11009KT 8SM BKN013 BKN022 OVC060 21/19 A3003 RMK AO2 SLP173 T02060189
KCXO 
41nm NW 
211353Z 09006KT 10SM OVC018 17/14 A3007 RMK AO2 SLP179 T01670139
KDWH 
44nm W 
211353Z 08007KT 10SM OVC014 17/14 A3005 RMK AO2 SLP174 T01720139
KLVJ 
44nm SW 
211353Z AUTO 12008KT 9SM BKN015 OVC024 21/19 A3004 RMK AO2 SLP172 T02110189
TAF
KIAH 
35nm W 
211126Z 2112/2218 09008KT P6SM SCT008 BKN015 FM211500 13011G19KT P6SM BKN025 OVC035 FM212100 13009G18KT P6SM VCSH BKN035 FM220300 20008KT P6SM VCTS BKN025CB PROB30 2207/2210 TSRA BKN015CB FM221000 30006KT P6SM BKN020 FM221600 32012KT P6SM BKN035
KBPT 
35nm E 
211121Z 2112/2212 10011KT P6SM OVC040 FM211500 13012G18KT P6SM SCT025 OVC040 FM211800 14014G20KT P6SM VCSH BKN025 FM220000 15012KT P6SM VCSH OVC020 FM220400 16010KT 5SM -SHRA BR OVC015 TEMPO 2208/2212 VRB12G22KT 2SM TSRA OVC007CB
KEFD 
38nm SW 
211200Z 2112/2218 10009KT 9999 OVC017 QNH2998INS BECMG 2112/2113 10012KT 9999 OVC010 QNH3000INS BECMG 2118/2119 13010G15KT 8000 -RA OVC015 QNH2985INS TEMPO 2205/2209 17010G20KT 4800 -TSRA BKN010CB BECMG 2209/2210 21009KT 6000 -SHRA BR OVC008 QNH2990INS BECMG 2210/2211 32009KT 8000 BR OVC008 QNH2992INS BECMG 2213/2214 33010G20KT 9999 NSW OVC015 QNH2996INS TX22/2121Z TN16/2112Z
KHOU 
40nm SW 
211126Z 2112/2212 11009KT P6SM SCT008 BKN015 FM211500 14012KT P6SM BKN025 OVC035 FM212100 13009KT P6SM VCSH BKN025 BKN040 FM220300 14008KT P6SM VCTS BKN025CB PROB30 2207/2210 TSRA BKN015CB FM221000 29010KT P6SM BKN015
KCXO 
41nm NW 
211126Z 2112/2212 09005KT P6SM BKN020 OVC040 FM211300 10006KT P6SM BKN015 OVC025 FM211800 12009KT P6SM VCSH BKN025 BKN060 OVC180 FM212100 13009KT P6SM VCTS BKN025CB BKN040 PROB30 2206/2208 4SM -TSRA BKN010CB FM220900 27010KT 5SM BR OVC010
NOTAMs
Click for the latest NOTAMs
NOTAMs are issued by the DoD/FAA and will open in a separate window not controlled by AirNav.

 

 
 

FBO, Fuel Providers, and Aircraft Ground Support

  
 Business Name 
 
 Contact 
 
 Services / Description 
 
Fuel Prices
 
Comments
  
Liberty Municipal Airport 281-660-2337
936-336-3684
[web site]
Aviation fuel, Aircraft parking (ramp or tiedown), Restrooms
More info and photos of Liberty Municipal Airport
independent
100LL Jet A
SS $3.55 $2.80 
 Updated 02-Apr-2018
 
   6 read write
SS=Self service
Update Fuel Prices
 

Would you like to see your business listed on this page?

 If your business provides an interesting product or service to pilots, flight crews, aircraft, or users of the Liberty Municipal Airport, you should consider listing it here.  To start the listing process, click on the button below
 
Add a business
 

Other Pages about Liberty Municipal Airport

www.cityofliberty.org/...
 
Update a link
 
Copyright © AirNav, LLC. All rights reserved. Privacy Policy  Contact